23:37
Airports
Links
Donate
Help keep this website running!
PayPal
Bitcoin
METAR
KYIP 192329Z 21016KT 1SM R05R/3500VP6000FT RA BR SCT005 BKN048 OVC070 12/11 A2993 RMK AO2 RAB02 P0008 T01170106
Current Weather Conditions at KYIP
IFR 23:29:00 19-02-18
Automated station
Altimeter:29.93 hg
Temp:11.7°c 52°f
Dew point:10.6°c 50°f
Wind:16 knots, 18.4 mph, 8 m/s, from 210°
Visibility:1.0 statute miles
7000(OVC) Overcast
4800(BKN) Broken
500(SCT) Scattered
Past METAR reports
IFR 23:05:00 19-02-18
Automated station
Altimeter:29.93 hg
Temp:11.7°c 52°f
Dew point:10.6°c 50°f
Wind:15 knots, 17.3 mph, 8 m/s, from 210°
Visibility:1.0 statute miles
2000(OVC) Overcast
600(BKN) Broken
KYIP 192305Z 21015KT 1SM R05R/4500VP6000FT -RA MIFG BKN006 OVC020 12/11 A2993 RMK AO2 RAB02 P0000 T01170106
IFR 22:53:00 19-02-18
Automated station
Altimeter:29.92 hg
Temp:11.1°c 52°f
Dew point:10.0°c 50°f
Wind:15 knots, 17.3 mph, 8 m/s, from 220°
Visibility:1.0 statute miles
700(OVC) Overcast
KYIP 192253Z COR 22015KT 1SM R05R/P6000FT MIFG OVC007 11/10 A2992 RMK AO2 RAE05 CIG 005V010 SLP134 P0000 T01110100
IFR 22:40:00 19-02-18
Automated station
Altimeter:29.91 hg
Temp:11.1°c 52°f
Dew point:10.0°c 50°f
Wind:14 knots, 16.1 mph, 7 m/s, from 210°
Visibility:1.0 statute miles
1300(OVC) Overcast
700(BKN) Broken
KYIP 192240Z 21014KT 1SM R05R/P6000FT BR BKN007 OVC013 11/10 A2991 RMK AO2 RAE05 CIG 006V010 P0000 T01110100
IFR 22:15:00 19-02-18
Automated station
Altimeter:29.90 hg
Temp:10.6°c 50°f
Dew point:10.0°c 50°f
Wind:12 knots, 13.8 mph, 6 m/s, from 210°
Visibility:1.0 statute miles
1300(OVC) Overcast
800(SCT) Scattered
KYIP 192215Z 21012KT 1SM R05R/4500VP6000FT BR SCT008 OVC013 11/10 A2990 RMK AO2 RAE05 P0000 T01060100
IFR 22:00:00 19-02-18
Automated station
Altimeter:29.90 hg
Temp:10.6°c 50°f
Dew point:9.4°c 48°f
Wind:12 knots, 13.8 mph, 6 m/s, from 210°
Visibility:1.0 statute miles
1700(OVC) Overcast
800(BKN) Broken
KYIP 192200Z 21012KT 1SM R05R/5000VP6000FT -RA BR BKN008 OVC017 11/09 A2990 RMK AO2 P0000 T01060094
LIFR 21:53:00 19-02-18
Automated station
Altimeter:29.90 hg
Temp:10.6°c 50°f
Dew point:9.4°c 48°f
Wind:12 knots, 13.8 mph, 6 m/s, from 210°
Visibility:0.25 statute miles
800(OVC) Overcast
KYIP 192153Z 21012KT 1/4SM R05R/4500VP6000FT -RA FG OVC008 11/09 A2990 RMK AO2 RAE09B21 SLP127 P0001 T01060094
TAF
KYIP 192322Z 2000/2024 20013KT 6SM -SHRA BR SCT015 BKN025 OVC040 TEMPO 2000/2004 4SM RA BR BKN007 OVC015 FM201100 20013KT 5SM -RA BR BKN008 OVC015 FM201800 21015G22KT 6SM -RA BR SCT008 OVC015
Forecast at KYIP
00:00 20-02-18 to 11:00 20-02-18
-SHRA BR
Wind:13 Knots from 200°
Visibility:6.0 statute miles
1500SCT Scattered
2500BKN Broken
4000OVC Overcast
TEMPO 00:00 20-02-18 to 04:00 20-02-18
RA BR
Visibility:4.0 statute miles
700BKN Broken
1500OVC Overcast
FM 11:00 20-02-18 to 18:00 20-02-18
-RA BR
Wind:13 Knots from 200°
Visibility:5.0 statute miles
800BKN Broken
1500OVC Overcast
FM 18:00 20-02-18 to 00:00 21-02-18
-RA BR
Wind:15 Knots from 210°
Visibility:6.0 statute miles
800SCT Scattered
1500OVC Overcast